Time;durP1;ratioP1;P1;durP2;ratioP2;P2;SDS_P1;SDS_P2;PMS_P1;PMS_P2;Temp;Humidity;BMP_temperature;BMP_pressure;BME280_temperature;BME280_humidity;BME280_pressure;Samples;Min_cycle;Max_cycle;Signal;HPM_P1;HPM_P2
2022/03/21 00:01:08;;;;;;;10.80;9.93;;;7.80;74.40;;;;;;5098825;28;20469;-79
2022/03/21 00:03:37;;;;;;;11.53;10.47;;;7.80;74.50;;;;;;5098628;28;20444;-79
2022/03/21 00:06:06;;;;;;;11.17;10.20;;;7.80;74.40;;;;;;5098842;28;20498;-79
2022/03/21 00:08:34;;;;;;;10.60;9.50;;;7.80;74.50;;;;;;5124064;28;20431;-79
2022/03/21 00:11:04;;;;;;;10.43;9.43;;;7.70;74.40;;;;;;5122353;28;20444;-80
2022/03/21 00:13:33;;;;;;;11.57;10.60;;;7.70;74.40;;;;;;5113693;28;20520;-79
2022/03/21 00:16:02;;;;;;;10.80;9.80;;;7.70;74.50;;;;;;5102284;28;20478;-79
2022/03/21 00:18:30;;;;;;;10.83;9.83;;;7.70;74.60;;;;;;5102769;28;20451;-79
2022/03/21 00:20:59;;;;;;;11.40;10.30;;;7.60;74.50;;;;;;5103054;28;20441;-80
2022/03/21 00:23:27;;;;;;;10.10;9.20;;;7.70;74.60;;;;;;5099802;28;20454;-80
2022/03/21 00:25:56;;;;;;;10.80;9.90;;;7.60;74.40;;;;;;5101947;28;20459;-80
2022/03/21 00:28:25;;;;;;;10.73;9.73;;;7.60;74.50;;;;;;5101474;28;20827;-79
2022/03/21 00:30:55;;;;;;;11.17;10.07;;;7.60;74.60;;;;;;5102406;28;20941;-79
2022/03/21 00:33:24;;;;;;;10.97;9.93;;;7.60;74.70;;;;;;5101002;28;20464;-79
2022/03/21 00:35:52;;;;;;;11.37;10.27;;;7.50;74.70;;;;;;5101671;28;20493;-79
2022/03/21 00:38:21;;;;;;;11.20;10.00;;;7.50;74.70;;;;;;5103052;28;20436;-79
2022/03/21 00:40:50;;;;;;;11.07;10.07;;;7.50;74.80;;;;;;5109234;28;20591;-79
2022/03/21 00:43:21;;;;;;;11.67;10.50;;;7.50;74.80;;;;;;5121176;28;20510;-79
2022/03/21 00:45:52;;;;;;;11.37;10.37;;;7.40;74.80;;;;;;5122971;28;20879;-79
2022/03/21 00:48:21;;;;;;;11.53;10.50;;;7.40;74.90;;;;;;5120989;28;20462;-79
2022/03/21 00:50:50;;;;;;;11.80;10.67;;;7.40;75.00;;;;;;5110535;28;20463;-79
2022/03/21 00:53:19;;;;;;;11.13;9.97;;;7.40;75.00;;;;;;5100498;28;20891;-80
2022/03/21 00:55:48;;;;;;;11.33;10.23;;;7.30;75.00;;;;;;5100087;28;20550;-79
2022/03/21 00:58:17;;;;;;;12.00;10.80;;;7.30;75.10;;;;;;5100582;28;20476;-79
2022/03/21 01:00:46;;;;;;;11.43;10.40;;;7.30;75.10;;;;;;5112064;28;20446;-79
2022/03/21 01:03:16;;;;;;;11.00;9.90;;;7.30;75.20;;;;;;5121495;28;20451;-79
2022/03/21 01:05:44;;;;;;;11.33;10.23;;;7.20;75.20;;;;;;5116103;28;20482;-80
2022/03/21 01:08:12;;;;;;;11.30;10.30;;;7.20;75.30;;;;;;5102078;28;20501;-80
2022/03/21 01:10:40;;;;;;;11.33;9.90;;;7.20;75.40;;;;;;5100672;28;20895;-79
2022/03/21 01:13:09;;;;;;;11.60;10.50;;;7.10;75.30;;;;;;5100960;28;20481;-79
2022/03/21 01:15:37;;;;;;;11.17;10.20;;;7.10;75.40;;;;;;5100602;28;20608;-79
2022/03/21 01:18:05;;;;;;;12.33;10.13;;;7.10;75.50;;;;;;5102461;28;20435;-79
2022/03/21 01:20:35;;;;;;;10.50;9.50;;;7.00;75.40;;;;;;5107156;28;20522;-79
2022/03/21 01:23:03;;;;;;;10.40;9.30;;;7.00;75.50;;;;;;5102203;28;20516;-80
2022/03/21 01:25:31;;;;;;;11.40;10.33;;;7.00;75.60;;;;;;5101152;28;20508;-79
2022/03/21 01:28:00;;;;;;;10.77;9.67;;;7.00;75.70;;;;;;5110234;28;20448;-80
2022/03/21 01:30:28;;;;;;;11.10;10.07;;;7.00;75.70;;;;;;5122090;28;20434;-79
2022/03/21 01:32:56;;;;;;;11.60;10.33;;;6.90;75.70;;;;;;5122106;28;20868;-79
2022/03/21 01:35:25;;;;;;;12.43;11.33;;;6.90;75.80;;;;;;5121751;28;20471;-79
2022/03/21 01:37:57;;;;;;;10.50;9.50;;;6.80;75.70;;;;;;5121266;28;21036;-79
2022/03/21 01:40:25;;;;;;;11.17;10.03;;;6.80;75.90;;;;;;5110249;28;20469;-80
2022/03/21 01:42:53;;;;;;;11.70;10.40;;;6.80;75.90;;;;;;5099740;28;20447;-79
2022/03/21 01:45:29;;;;;;;12.30;11.17;;;6.80;76.00;;;;;;5101134;28;20885;-79
2022/03/21 01:47:58;;;;;;;10.40;9.40;;;6.70;76.10;;;;;;5098308;28;20449;-79
2022/03/21 01:50:26;;;;;;;11.03;9.93;;;6.70;76.10;;;;;;5097653;28;20441;-79
2022/03/21 01:55:43;;;;;;;11.47;10.30;;;6.60;76.10;;;;;;5107928;28;20484;-79
2022/03/21 01:55:45;;;;;;;11.43;10.33;;;6.60;76.20;;;;;;5118320;28;20535;-79
2022/03/21 01:58:14;;;;;;;12.33;10.90;;;6.60;76.40;;;;;;5119959;28;20467;-79
2022/03/21 02:00:42;;;;;;;10.90;9.90;;;6.50;76.40;;;;;;5118212;28;20449;-79
2022/03/21 02:03:11;;;;;;;11.27;10.20;;;6.50;76.50;;;;;;5117671;28;20495;-80
2022/03/21 02:05:40;;;;;;;11.23;10.23;;;6.50;76.60;;;;;;5118477;28;20527;-79
2022/03/21 02:08:10;;;;;;;10.90;9.90;;;6.50;76.70;;;;;;5118116;28;20451;-79
2022/03/21 02:10:38;;;;;;;11.67;10.67;;;6.50;76.80;;;;;;5118973;28;20442;-79
2022/03/21 02:13:07;;;;;;;11.47;10.37;;;6.50;76.90;;;;;;5118108;28;20445;-79
2022/03/21 02:15:36;;;;;;;10.67;9.67;;;6.50;77.00;;;;;;5118378;28;20879;-79
2022/03/21 02:18:05;;;;;;;11.40;10.30;;;6.40;77.00;;;;;;5117854;28;20445;-79
2022/03/21 02:20:36;;;;;;;11.03;9.93;;;6.40;77.10;;;;;;5112413;28;20962;-79
2022/03/21 02:23:12;;;;;;;11.40;10.30;;;6.40;77.20;;;;;;5119518;28;20444;-79
2022/03/21 02:25:43;;;;;;;11.20;10.20;;;6.40;77.30;;;;;;5118314;28;20470;-79
2022/03/21 02:28:15;;;;;;;10.63;9.63;;;6.40;77.30;;;;;;5117392;28;20951;-79
2022/03/21 02:30:46;;;;;;;10.53;9.43;;;6.40;77.40;;;;;;5117684;28;20448;-79
2022/03/21 02:33:16;;;;;;;12.37;10.70;;;6.40;77.50;;;;;;5103810;28;20443;-79
2022/03/21 02:35:46;;;;;;;11.33;10.23;;;6.40;77.60;;;;;;5097145;28;20528;-79
2022/03/21 02:38:16;;;;;;;14.87;11.43;;;6.40;77.60;;;;;;5097432;28;20478;-79
2022/03/21 02:40:46;;;;;;;12.13;11.00;;;6.40;77.80;;;;;;5104864;28;20998;-79
2022/03/21 02:43:14;;;;;;;10.57;9.57;;;6.40;77.90;;;;;;5098305;28;20475;-79
2022/03/21 02:45:43;;;;;;;11.50;10.40;;;6.40;77.90;;;;;;5118278;28;20544;-79
2022/03/21 02:48:13;;;;;;;11.87;10.83;;;6.40;77.90;;;;;;5118728;28;20486;-79
2022/03/21 02:50:44;;;;;;;12.43;11.33;;;6.40;78.10;;;;;;5118129;28;20436;-79
2022/03/21 02:53:13;;;;;;;11.50;10.43;;;6.40;78.20;;;;;;5119205;28;20469;-79
2022/03/21 02:55:42;;;;;;;12.17;10.97;;;6.40;78.20;;;;;;5106870;28;20572;-79
2022/03/21 02:58:11;;;;;;;12.30;11.13;;;6.40;78.30;;;;;;5118216;28;20524;-80
2022/03/21 03:00:40;;;;;;;11.37;10.37;;;6.40;78.40;;;;;;5117947;28;20462;-79
2022/03/21 03:03:08;;;;;;;12.20;11.03;;;6.50;78.50;;;;;;5118272;28;20454;-79
2022/03/21 03:05:37;;;;;;;11.40;10.30;;;6.50;78.60;;;;;;5114725;28;20494;-79
2022/03/21 03:08:05;;;;;;;11.63;10.53;;;6.40;78.50;;;;;;5119776;28;20803;-78
2022/03/21 03:10:33;;;;;;;12.13;11.03;;;6.50;78.70;;;;;;5115243;28;20453;-80
2022/03/21 03:13:01;;;;;;;12.83;11.73;;;6.50;78.80;;;;;;5117620;28;20959;-79
2022/03/21 03:15:31;;;;;;;11.63;10.63;;;6.50;78.80;;;;;;5113236;28;20480;-79
2022/03/21 03:18:00;;;;;;;12.97;11.57;;;6.50;78.80;;;;;;5101341;28;20789;-79
2022/03/21 03:20:28;;;;;;;12.70;11.50;;;6.50;78.80;;;;;;5101706;28;20481;-79
2022/03/21 03:22:59;;;;;;;12.33;11.13;;;6.50;78.80;;;;;;5101313;28;20459;-79
2022/03/21 03:25:28;;;;;;;11.73;10.73;;;6.50;78.90;;;;;;5100048;28;20483;-79
2022/03/21 03:27:57;;;;;;;13.53;11.70;;;6.50;79.00;;;;;;5121635;28;20448;-79
2022/03/21 03:30:25;;;;;;;12.87;11.67;;;6.50;79.10;;;;;;5121296;28;20474;-79
2022/03/21 03:32:55;;;;;;;13.50;11.30;;;6.50;79.10;;;;;;5122157;28;20479;-79
2022/03/21 03:35:23;;;;;;;12.10;10.90;;;6.60;79.30;;;;;;5110113;28;20477;-79
2022/03/21 03:37:52;;;;;;;12.47;11.27;;;6.50;79.30;;;;;;5100805;28;20448;-80
2022/03/21 03:40:21;;;;;;;12.23;11.13;;;6.60;79.40;;;;;;5101077;28;20455;-79
2022/03/21 03:42:49;;;;;;;12.87;11.67;;;6.60;79.50;;;;;;5101763;28;21032;-79
2022/03/21 03:45:19;;;;;;;12.27;11.10;;;6.60;79.60;;;;;;5100959;28;20504;-79
2022/03/21 03:47:47;;;;;;;12.10;10.90;;;6.60;79.80;;;;;;5101433;28;20995;-79
2022/03/21 03:50:17;;;;;;;12.17;11.07;;;6.60;79.90;;;;;;5103129;28;20972;-79
2022/03/21 03:52:46;;;;;;;12.53;11.43;;;6.60;80.00;;;;;;5121342;28;20474;-79
2022/03/21 03:55:14;;;;;;;12.13;11.03;;;6.60;80.00;;;;;;5116299;28;20511;-79
2022/03/21 03:57:43;;;;;;;13.50;12.10;;;6.60;80.00;;;;;;5121603;28;20953;-79
2022/03/21 04:00:12;;;;;;;11.83;10.73;;;6.60;80.10;;;;;;5121136;28;20469;-79
2022/03/21 04:05:28;;;;;;;13.03;11.83;;;6.60;80.20;;;;;;5119606;28;20477;-79
2022/03/21 04:07:57;;;;;;;13.00;11.80;;;6.60;80.20;;;;;;5100110;28;20448;-79
2022/03/21 04:10:25;;;;;;;12.50;11.30;;;6.60;80.20;;;;;;5100922;28;20550;-79
2022/03/21 04:12:55;;;;;;;12.50;11.40;;;6.60;80.20;;;;;;5099982;28;20945;-78
2022/03/21 04:15:23;;;;;;;12.70;11.60;;;6.60;80.30;;;;;;5104378;28;20467;-79
2022/03/21 04:17:53;;;;;;;13.40;12.10;;;6.60;80.40;;;;;;5105697;28;20517;-78
2022/03/21 04:20:23;;;;;;;13.00;11.90;;;6.60;80.50;;;;;;5106211;28;20547;-79
2022/03/21 04:22:52;;;;;;;18.93;16.97;;;6.60;80.50;;;;;;5106501;28;20434;-79
2022/03/21 04:25:21;;;;;;;17.10;15.37;;;6.60;80.60;;;;;;5112822;28;20508;-79
2022/03/21 04:27:49;;;;;;;16.03;14.43;;;6.60;80.70;;;;;;5128273;28;20458;-79
2022/03/21 04:30:17;;;;;;;15.73;14.10;;;6.60;80.70;;;;;;5123083;28;20519;-78
2022/03/21 04:32:45;;;;;;;16.70;15.00;;;6.60;80.80;;;;;;5123196;27;20444;-78
2022/03/21 04:35:14;;;;;;;13.87;12.53;;;6.60;80.80;;;;;;5120402;28;20479;-78
2022/03/21 04:37:42;;;;;;;13.00;11.70;;;6.60;80.80;;;;;;5120692;28;20478;-78
2022/03/21 04:40:12;;;;;;;12.27;11.07;;;6.60;80.80;;;;;;5121108;28;20445;-78
2022/03/21 04:42:41;;;;;;;13.70;12.40;;;6.60;80.90;;;;;;5117499;28;20462;-79
2022/03/21 04:45:10;;;;;;;12.30;11.10;;;6.60;80.90;;;;;;5116895;28;20456;-78
2022/03/21 04:47:39;;;;;;;13.10;11.90;;;6.60;81.00;;;;;;5100364;28;20437;-78
2022/03/21 04:50:08;;;;;;;13.27;12.07;;;6.50;80.90;;;;;;5099238;28;20528;-78
2022/03/21 04:52:37;;;;;;;13.77;12.30;;;6.60;81.10;;;;;;5098443;28;20459;-78
2022/03/21 04:55:07;;;;;;;12.60;11.40;;;6.60;81.80;;;;;;5099374;28;20480;-78
2022/03/21 04:57:43;;;;;;;12.53;11.33;;;6.60;81.10;;;;;;5105785;28;20550;-79
2022/03/21 05:00:13;;;;;;;12.50;11.30;;;6.60;81.20;;;;;;5119979;28;20444;-79
2022/03/21 05:02:41;;;;;;;14.57;13.07;;;6.60;81.30;;;;;;5120392;28;20445;-79
2022/03/21 05:05:10;;;;;;;13.20;12.00;;;6.50;81.20;;;;;;5119326;28;20462;-79
2022/03/21 05:07:43;;;;;;;12.70;11.60;;;6.60;81.40;;;;;;5117036;28;20512;-79
2022/03/21 05:10:11;;;;;;;14.60;12.03;;;6.60;81.40;;;;;;5119035;28;20452;-79
2022/03/21 05:12:39;;;;;;;12.67;11.50;;;6.50;81.40;;;;;;5119689;28;20844;-79
2022/03/21 05:15:10;;;;;;;12.80;11.60;;;6.60;81.50;;;;;;5115875;28;20549;-79
2022/03/21 05:17:39;;;;;;;12.30;11.27;;;6.50;81.50;;;;;;5100683;28;20957;-78
2022/03/21 05:20:12;;;;;;;13.93;11.80;;;6.50;81.70;;;;;;5099548;28;20532;-80
2022/03/21 05:22:41;;;;;;;12.33;11.23;;;6.50;81.70;;;;;;5099841;28;20458;-79
2022/03/21 05:31:02;;;;;;;13.47;12.07;;;6.50;81.80;;;;;;5097640;28;20460;-79
2022/03/21 05:36:18;;;;;;;13.50;12.30;;;6.50;81.90;;;;;;5101514;28;20473;-79
2022/03/21 05:38:46;;;;;;;12.57;11.40;;;6.50;81.90;;;;;;5106367;28;20549;-79
2022/03/21 05:41:14;;;;;;;14.60;13.20;;;6.50;82.00;;;;;;5107730;28;20462;-79
2022/03/21 05:43:42;;;;;;;13.80;12.50;;;6.50;82.00;;;;;;5100030;28;20476;-79
2022/03/21 05:46:12;;;;;;;13.60;12.40;;;6.50;82.10;;;;;;5098807;28;20557;-79
2022/03/21 05:48:53;;;;;;;13.87;12.67;;;6.50;82.20;;;;;;5099428;28;20470;-79
2022/03/21 05:51:24;;;;;;;13.20;12.00;;;6.50;82.20;;;;;;5101007;28;20461;-79
2022/03/21 05:53:52;;;;;;;13.47;12.17;;;6.50;82.30;;;;;;5109558;28;20441;-79
2022/03/21 05:56:21;;;;;;;13.20;12.00;;;6.50;82.30;;;;;;5113470;28;21013;-79
2022/03/21 05:58:50;;;;;;;13.70;12.43;;;6.50;82.40;;;;;;5117134;28;20452;-79
2022/03/21 06:01:22;;;;;;;13.27;12.17;;;6.50;82.50;;;;;;5117193;28;20458;-80
2022/03/21 06:03:52;;;;;;;13.30;12.10;;;6.40;82.40;;;;;;5117291;28;20979;-79
2022/03/21 06:06:24;;;;;;;13.57;12.27;;;6.40;82.50;;;;;;5119652;28;20463;-79
2022/03/21 06:08:52;;;;;;;14.23;13.03;;;6.40;82.50;;;;;;5119342;28;20445;-78
2022/03/21 06:11:23;;;;;;;13.10;11.90;;;6.40;82.60;;;;;;5118490;28;20448;-79
2022/03/21 06:13:51;;;;;;;14.83;13.43;;;6.40;82.60;;;;;;5118082;28;20510;-78
2022/03/21 06:16:21;;;;;;;13.90;12.60;;;6.50;82.90;;;;;;5118011;28;20467;-79
2022/03/21 06:18:49;;;;;;;13.13;11.83;;;6.40;82.90;;;;;;5117984;28;20942;-79
2022/03/21 06:21:17;;;;;;;13.50;12.20;;;6.40;82.90;;;;;;5117211;28;20524;-79
2022/03/21 06:23:46;;;;;;;13.00;11.80;;;6.40;82.90;;;;;;5118427;28;20475;-79
2022/03/21 06:26:15;;;;;;;16.83;15.00;;;6.40;82.90;;;;;;5118731;28;20463;-79
2022/03/21 06:28:43;;;;;;;13.73;12.43;;;6.40;83.10;;;;;;5118489;28;20464;-79
2022/03/21 06:31:11;;;;;;;13.97;12.60;;;6.50;83.20;;;;;;5119140;28;20452;-79
2022/03/21 06:33:41;;;;;;;14.30;12.90;;;6.50;83.30;;;;;;5120548;28;20853;-80
2022/03/21 06:36:11;;;;;;;15.00;13.57;;;6.50;83.40;;;;;;5120062;28;20534;-79
2022/03/21 06:38:40;;;;;;;15.70;14.20;;;6.50;83.30;;;;;;5118788;28;20561;-77
2022/03/21 06:41:08;;;;;;;15.40;14.00;;;6.50;83.30;;;;;;5116667;28;20524;-79
2022/03/21 06:43:36;;;;;;;14.90;13.53;;;6.50;83.40;;;;;;5121188;28;20509;-80
2022/03/21 06:46:06;;;;;;;15.30;13.73;;;6.50;83.50;;;;;;5119436;28;20474;-81
2022/03/21 06:48:35;;;;;;;13.70;12.47;;;6.50;83.50;;;;;;5120488;28;20469;-79
2022/03/21 06:51:05;;;;;;;14.03;12.73;;;6.50;83.60;;;;;;5121154;28;20452;-80
2022/03/21 06:53:33;;;;;;;15.37;13.90;;;6.60;83.80;;;;;;5121701;28;20451;-80
2022/03/21 06:56:01;;;;;;;14.70;13.30;;;6.60;83.80;;;;;;5120178;28;20468;-79
2022/03/21 06:58:30;;;;;;;15.93;14.43;;;6.60;83.80;;;;;;5120971;28;20474;-79
2022/03/21 07:00:58;;;;;;;15.30;13.83;;;6.60;84.40;;;;;;5120504;28;20449;-79
2022/03/21 07:03:28;;;;;;;15.10;13.60;;;6.60;83.90;;;;;;5119164;28;20435;-78
2022/03/21 07:05:56;;;;;;;16.83;11.53;;;6.70;84.10;;;;;;5116244;28;20473;-78
2022/03/21 07:08:31;;;;;;;16.17;14.50;;;6.70;84.10;;;;;;5116354;28;20943;-78
2022/03/21 07:10:59;;;;;;;734.83;98.07;;;6.80;84.20;;;;;;5116053;28;20488;-78
2022/03/21 07:13:29;;;;;;;15.43;13.77;;;6.80;84.20;;;;;;5116735;28;20540;-79
2022/03/21 07:15:58;;;;;;;15.90;14.50;;;6.90;84.40;;;;;;5119147;28;20883;-78
2022/03/21 07:18:26;;;;;;;15.67;14.07;;;7.00;84.60;;;;;;5118939;28;20491;-79
2022/03/21 07:20:55;;;;;;;15.30;13.80;;;7.10;84.70;;;;;;5117642;28;20947;-78
2022/03/21 07:23:23;;;;;;;14.77;13.50;;;7.20;84.70;;;;;;5117581;28;20485;-79
2022/03/21 07:25:53;;;;;;;17.33;15.73;;;7.30;84.60;;;;;;5117772;28;21060;-78
2022/03/21 07:28:21;;;;;;;16.80;15.20;;;7.40;84.70;;;;;;5118549;28;20441;-78
2022/03/21 07:31:10;;;;;;;16.27;14.57;;;7.50;84.70;;;;;;5118888;28;20439;-78
2022/03/21 07:33:40;;;;;;;14.70;13.40;;;7.60;84.80;;;;;;5118145;28;20865;-79
2022/03/21 07:36:10;;;;;;;16.07;14.70;;;7.70;84.90;;;;;;5117036;28;20506;-78
2022/03/21 07:38:38;;;;;;;17.00;15.37;;;7.80;84.70;;;;;;5116209;28;20946;-78
2022/03/21 07:41:09;;;;;;;15.50;13.90;;;7.90;84.70;;;;;;5116356;28;20538;-78
2022/03/21 07:43:39;;;;;;;16.13;14.57;;;8.00;84.80;;;;;;5117169;28;20534;-78
2022/03/21 07:48:53;;;;;;;122.47;25.60;;;8.20;84.80;;;;;;5116001;28;20432;-78
2022/03/21 07:51:21;;;;;;;16.73;15.03;;;8.30;84.70;;;;;;5116158;28;20478;-78
2022/03/21 07:53:49;;;;;;;15.70;13.80;;;8.40;84.70;;;;;;5118206;28;20444;-78
2022/03/21 07:56:25;;;;;;;16.90;15.40;;;8.50;84.50;;;;;;5116464;28;20468;-79
2022/03/21 07:58:53;;;;;;;16.37;14.90;;;8.50;84.40;;;;;;5118230;28;20485;-78
2022/03/21 08:01:21;;;;;;;16.57;15.07;;;8.60;84.30;;;;;;5118423;28;21042;-80
2022/03/21 08:03:50;;;;;;;17.43;15.57;;;8.80;84.30;;;;;;5120501;28;20458;-78
2022/03/21 08:06:18;;;;;;;17.20;15.53;;;8.90;84.00;;;;;;5120414;28;20549;-79
2022/03/21 08:08:47;;;;;;;16.87;15.20;;;9.10;84.10;;;;;;5120258;28;20447;-78
2022/03/21 08:11:17;;;;;;;16.10;14.60;;;9.20;84.00;;;;;;5120570;28;20947;-79
2022/03/21 08:13:49;;;;;;;15.63;14.20;;;9.40;84.10;;;;;;5119823;28;20971;-79
2022/03/21 08:16:22;;;;;;;16.60;15.00;;;9.50;84.20;;;;;;5120072;28;20467;-78
2022/03/21 08:18:52;;;;;;;17.27;15.57;;;9.70;84.20;;;;;;5122236;28;20463;-78
2022/03/21 08:21:21;;;;;;;15.07;13.63;;;9.80;84.10;;;;;;5120134;28;20449;-79
2022/03/21 08:23:51;;;;;;;851.53;116.77;;;9.90;84.00;;;;;;5121317;28;20451;-78
2022/03/21 08:26:19;;;;;;;17.50;15.83;;;9.90;83.70;;;;;;5120529;28;21014;-78
2022/03/21 08:28:49;;;;;;;16.27;14.70;;;10.00;82.70;;;;;;5122068;28;20471;-79
2022/03/21 08:31:17;;;;;;;19.10;15.70;;;10.20;82.80;;;;;;5118582;28;20497;-79
2022/03/21 08:33:46;;;;;;;15.63;13.67;;;10.30;83.10;;;;;;5120182;28;20469;-78
2022/03/21 08:36:14;;;;;;;18.90;16.90;;;10.50;82.80;;;;;;5120629;28;20467;-78
2022/03/21 08:38:42;;;;;;;16.37;14.87;;;10.60;82.80;;;;;;5119422;28;20517;-77
2022/03/21 08:41:11;;;;;;;16.37;14.40;;;10.70;82.70;;;;;;5116617;28;20975;-78
2022/03/21 08:43:39;;;;;;;17.10;15.43;;;10.80;82.70;;;;;;5100211;28;20856;-78
2022/03/21 08:46:09;;;;;;;16.33;14.83;;;10.90;82.80;;;;;;5083301;28;20826;-78
2022/03/21 08:51:43;;;;;;;16.97;15.30;;;11.20;83.40;;;;;;5088823;28;20523;-78
2022/03/21 08:54:12;;;;;;;18.13;16.37;;;11.30;82.90;;;;;;5087027;28;20806;-78
2022/03/21 08:56:40;;;;;;;16.70;15.17;;;11.40;83.50;;;;;;5090558;28;20517;-78
2022/03/21 08:59:09;;;;;;;17.20;15.60;;;11.50;82.80;;;;;;5088197;28;20487;-78
2022/03/21 09:01:38;;;;;;;17.23;15.73;;;11.60;82.80;;;;;;5086210;28;20457;-78
2022/03/21 09:04:08;;;;;;;16.90;15.40;;;11.70;82.70;;;;;;5088727;28;20454;-78
2022/03/21 09:06:37;;;;;;;17.40;15.60;;;11.80;82.70;;;;;;5096759;28;21035;-78
2022/03/21 09:09:05;;;;;;;18.63;16.83;;;11.90;82.70;;;;;;5087321;28;20697;-78
2022/03/21 09:11:34;;;;;;;18.20;16.50;;;12.00;82.20;;;;;;5088215;28;20470;-78
2022/03/21 09:14:02;;;;;;;17.60;16.10;;;12.00;82.00;;;;;;5084689;28;20890;-78
2022/03/21 09:16:30;;;;;;;17.47;15.87;;;12.10;82.00;;;;;;5076982;28;20469;-78
2022/03/21 09:19:00;;;;;;;17.47;15.77;;;12.10;81.80;;;;;;5077142;28;20469;-78
2022/03/21 09:21:28;;;;;;;16.63;15.07;;;12.20;81.70;;;;;;5078837;28;20444;-78
2022/03/21 09:23:57;;;;;;;17.00;15.40;;;12.20;81.70;;;;;;5078874;28;20477;-78
2022/03/21 09:26:25;;;;;;;17.80;16.03;;;12.30;81.70;;;;;;5077099;28;20500;-78
2022/03/21 09:28:59;;;;;;;18.27;16.47;;;12.30;81.70;;;;;;5078666;28;20457;-78
2022/03/21 09:31:28;;;;;;;17.60;16.00;;;12.40;81.50;;;;;;5077621;28;20436;-78
2022/03/21 09:34:14;;;;;;;18.53;16.87;;;12.50;82.20;;;;;;5077776;28;20425;-78
2022/03/21 09:36:42;;;;;;;20.90;18.90;;;12.50;81.60;;;;;;5078403;28;20900;-78
2022/03/21 09:39:14;;;;;;;17.33;15.73;;;12.60;81.80;;;;;;5076876;28;20469;-79
2022/03/21 09:41:44;;;;;;;18.80;17.10;;;12.60;81.70;;;;;;5077270;28;20444;-78
2022/03/21 09:44:13;;;;;;;118.70;24.27;;;12.60;81.70;;;;;;5075495;28;20433;-77
2022/03/21 09:46:44;;;;;;;18.93;17.13;;;12.70;82.50;;;;;;5074493;28;20473;-78
2022/03/21 09:49:16;;;;;;;18.03;16.40;;;12.70;81.60;;;;;;5074322;28;20473;-77
2022/03/21 09:51:45;;;;;;;18.70;16.80;;;12.80;81.50;;;;;;5074635;28;20513;-77
2022/03/21 09:54:14;;;;;;;17.83;16.13;;;12.80;81.30;;;;;;5075946;28;20448;-77
2022/03/21 09:56:42;;;;;;;18.20;16.50;;;12.90;81.80;;;;;;5076175;28;20515;-77
2022/03/21 09:59:11;;;;;;;47.70;22.27;;;12.80;81.00;;;;;;5073638;28;20496;-78
2022/03/21 10:01:41;;;;;;;19.70;17.70;;;12.90;81.10;;;;;;5073541;28;20484;-77
2022/03/21 10:04:10;;;;;;;18.00;16.13;;;12.90;80.80;;;;;;5075285;28;20426;-78
2022/03/21 10:06:41;;;;;;;19.00;17.07;;;12.90;80.60;;;;;;5073564;28;20555;-77
2022/03/21 10:09:14;;;;;;;18.17;16.40;;;12.90;80.80;;;;;;5073186;28;21044;-77
2022/03/21 10:11:50;;;;;;;143.77;35.03;;;12.90;81.00;;;;;;5072851;28;20958;-78
2022/03/21 10:14:26;;;;;;;19.10;17.40;;;13.00;81.00;;;;;;5072720;28;20548;-77
2022/03/21 10:16:56;;;;;;;19.03;17.30;;;13.00;81.10;;;;;;5074895;28;20510;-78
2022/03/21 10:19:25;;;;;;;18.00;16.50;;;13.00;81.10;;;;;;5075521;28;20473;-77
2022/03/21 10:22:07;;;;;;;20.30;18.43;;;13.00;80.90;;;;;;5075252;28;20491;-77
2022/03/21 10:24:36;;;;;;;18.03;16.23;;;13.10;80.90;;;;;;5071889;28;20456;-77
2022/03/21 10:27:06;;;;;;;19.27;17.27;;;13.10;80.90;;;;;;5073258;28;20568;-77
2022/03/21 10:29:51;;;;;;;19.50;17.70;;;13.10;80.90;;;;;;5073598;28;20547;-77
2022/03/21 10:32:34;;;;;;;18.80;17.20;;;13.10;80.70;;;;;;5073161;28;20445;-77
2022/03/21 10:35:05;;;;;;;19.53;17.73;;;13.10;80.60;;;;;;5072995;28;20510;-77
2022/03/21 10:37:50;;;;;;;19.47;17.57;;;13.10;80.70;;;;;;5079027;28;20537;-77
2022/03/21 10:40:27;;;;;;;19.50;17.70;;;13.10;80.80;;;;;;5081021;28;20461;-77
2022/03/21 10:42:59;;;;;;;19.13;17.33;;;13.20;80.90;;;;;;5080403;28;20445;-77
2022/03/21 10:45:44;;;;;;;20.00;18.20;;;13.20;80.80;;;;;;5080185;28;20461;-77
2022/03/21 10:48:14;;;;;;;18.93;16.63;;;13.20;80.50;;;;;;5074685;28;20438;-77
2022/03/21 10:50:43;;;;;;;18.80;17.20;;;13.20;80.40;;;;;;5075669;28;20437;-78
2022/03/21 10:53:15;;;;;;;20.20;18.50;;;13.20;80.00;;;;;;5075832;28;20520;-77
2022/03/21 10:55:45;;;;;;;20.83;18.93;;;13.20;80.20;;;;;;5076342;28;20460;-78
2022/03/21 10:58:15;;;;;;;19.07;17.20;;;13.30;80.60;;;;;;5076942;28;20441;-78
2022/03/21 11:00:43;;;;;;;18.63;17.03;;;13.30;80.70;;;;;;5075598;28;20504;-78
2022/03/21 11:03:15;;;;;;;18.57;16.77;;;13.30;80.70;;;;;;5074593;28;20456;-77
2022/03/21 11:05:46;;;;;;;20.17;18.17;;;13.40;80.70;;;;;;5073745;28;20471;-78
2022/03/21 11:08:18;;;;;;;20.00;18.20;;;13.50;81.00;;;;;;5075076;28;20512;-79
2022/03/21 11:10:47;;;;;;;20.00;18.30;;;13.50;80.90;;;;;;5076421;28;20487;-79
2022/03/21 11:13:15;;;;;;;21.23;19.30;;;13.60;80.90;;;;;;5074252;28;20445;-78
2022/03/21 11:15:43;;;;;;;19.23;17.43;;;13.60;80.80;;;;;;5074271;28;20472;-78
2022/03/21 11:18:12;;;;;;;39.77;35.83;;;13.60;80.80;;;;;;5076194;28;20856;-78
2022/03/21 11:20:41;;;;;;;20.43;18.30;;;13.70;80.90;;;;;;5075269;28;20493;-78
2022/03/21 11:23:09;;;;;;;19.83;18.10;;;13.70;80.90;;;;;;5076014;28;20461;-78
2022/03/21 11:25:45;;;;;;;21.03;19.03;;;13.70;81.60;;;;;;5074432;28;21014;-77
2022/03/21 11:28:57;;;;;;;20.00;18.10;;;13.70;80.50;;;;;;5075207;28;20437;-78
2022/03/21 11:31:57;;;;;;;26.17;19.07;;;13.80;80.70;;;;;;5075486;28;20448;-78
2022/03/21 11:34:39;;;;;;;19.30;17.57;;;13.80;80.90;;;;;;5075117;28;20453;-78
2022/03/21 11:37:25;;;;;;;20.77;18.73;;;13.90;81.00;;;;;;5077974;28;20567;-78
2022/03/21 11:40:30;;;;;;;21.67;19.67;;;13.90;80.80;;;;;;5078573;28;20548;-78
2022/03/21 11:43:29;;;;;;;22.10;20.03;;;13.90;81.10;;;;;;5079212;28;20526;-78
2022/03/21 11:45:57;;;;;;;30.87;27.97;;;14.00;80.60;;;;;;5078660;28;20465;-78
2022/03/21 11:48:35;;;;;;;26.87;24.50;;;13.90;80.40;;;;;;5080481;28;20433;-78
2022/03/21 11:51:29;;;;;;;19.93;18.00;;;13.90;80.40;;;;;;5078860;28;20462;-78
2022/03/21 11:53:58;;;;;;;20.30;18.50;;;14.00;80.70;;;;;;5081020;28;20421;-78
2022/03/21 11:56:52;;;;;;;22.73;18.63;;;14.00;80.80;;;;;;5080592;28;20469;-78
2022/03/21 11:59:49;;;;;;;20.70;18.70;;;14.00;80.60;;;;;;5078612;28;20440;-78
2022/03/21 12:02:56;;;;;;;21.47;19.57;;;14.10;80.70;;;;;;5071600;28;20540;-78
2022/03/21 12:05:57;;;;;;;20.60;18.70;;;14.10;80.30;;;;;;5077214;28;20927;-77
2022/03/21 12:08:49;;;;;;;20.60;18.60;;;14.20;80.50;;;;;;5079520;28;20453;-78
2022/03/21 12:12:01;;;;;;;32.00;19.83;;;14.20;80.80;;;;;;5078531;28;21016;-78
2022/03/21 12:14:41;;;;;;;21.73;19.70;;;14.30;80.80;;;;;;5079064;28;20452;-78
2022/03/21 12:17:41;;;;;;;21.40;19.50;;;14.30;80.70;;;;;;5078388;28;20465;-78
2022/03/21 12:20:11;;;;;;;21.63;19.63;;;14.40;80.50;;;;;;5079264;28;20496;-78
2022/03/21 12:23:18;;;;;;;23.10;19.70;;;14.40;80.70;;;;;;5079106;28;20467;-78
2022/03/21 12:25:49;;;;;;;20.90;18.93;;;14.40;80.70;;;;;;5077824;28;20997;-78
2022/03/21 12:29:31;;;;;;;20.50;18.50;;;14.50;80.90;;;;;;5077128;28;20449;-78
2022/03/21 12:31:30;;;;;;;27.07;24.53;;;14.50;80.80;;;;;;5080164;28;20441;-79
2022/03/21 12:34:44;;;;;;;23.33;20.93;;;14.60;80.90;;;;;;5079283;28;20439;-78
2022/03/21 12:37:40;;;;;;;22.27;20.13;;;14.60;81.00;;;;;;5017785;28;20444;-78
2022/03/21 12:40:13;;;;;;;22.43;20.43;;;14.70;81.70;;;;;;5076276;28;20469;-78
2022/03/21 12:42:47;;;;;;;22.00;20.00;;;14.70;81.10;;;;;;5078437;28;20449;-78
2022/03/21 12:45:20;;;;;;;23.40;21.30;;;14.80;81.20;;;;;;5080136;28;20481;-79
2022/03/21 12:47:49;;;;;;;22.57;20.30;;;14.80;80.90;;;;;;5079696;28;20429;-78
2022/03/21 12:50:22;;;;;;;22.63;20.47;;;14.80;80.90;;;;;;5080021;28;20461;-78
2022/03/21 12:52:56;;;;;;;24.67;22.57;;;14.90;81.20;;;;;;5079585;28;20529;-78
2022/03/21 12:55:25;;;;;;;24.70;22.30;;;14.90;80.80;;;;;;5078891;28;20472;-79
2022/03/21 12:57:56;;;;;;;22.90;20.80;;;14.90;80.80;;;;;;5078603;28;20445;-78
2022/03/21 13:00:27;;;;;;;24.17;21.90;;;14.90;80.50;;;;;;5079803;28;20556;-79
2022/03/21 13:02:56;;;;;;;23.50;21.40;;;14.90;80.40;;;;;;5078828;28;20443;-79
2022/03/21 13:11:30;;;;;;;22.77;20.67;;;15.00;80.60;;;;;;5079168;28;20919;-79
2022/03/21 13:14:00;;;;;;;23.23;21.10;;;15.10;80.80;;;;;;5079859;28;20480;-78
2022/03/21 13:16:30;;;;;;;26.93;21.90;;;15.10;80.90;;;;;;5078724;28;20509;-78
2022/03/21 13:18:59;;;;;;;23.57;21.07;;;15.20;80.60;;;;;;5079605;28;20436;-78